Time;durP1;ratioP1;P1;durP2;ratioP2;P2;SDS_P1;SDS_P2;PMS_P1;PMS_P2;Temp;Humidity;BMP_temperature;BMP_pressure;BME280_temperature;BME280_humidity;BME280_pressure;Samples;Min_cycle;Max_cycle;Signal;HPM_P1;HPM_P2
2024/03/26 00:09:52;;;;;;;2.92;1.00;;;1.10;99.90;;;;;;20505189;29;20031;-40
2024/03/26 00:19:54;;;;;;;2.55;1.00;;;0.90;99.90;;;;;;20504279;29;20101;-40
2024/03/26 00:29:56;;;;;;;3.08;1.15;;;0.80;99.90;;;;;;20486521;29;20043;-40
2024/03/26 00:39:57;;;;;;;2.05;1.00;;;0.70;99.90;;;;;;20470113;28;20410;-40
2024/03/26 00:49:59;;;;;;;2.25;0.80;;;0.60;99.90;;;;;;20472307;29;20031;-39
2024/03/26 01:00:02;;;;;;;1.33;0.82;;;0.40;99.90;;;;;;20501892;29;20039;-39
2024/03/26 01:10:05;;;;;;;2.10;0.85;;;0.30;99.90;;;;;;20500425;29;20478;-39
2024/03/26 01:20:07;;;;;;;1.40;0.90;;;0.20;99.90;;;;;;20427380;29;20027;-39
2024/03/26 01:30:10;;;;;;;2.20;1.08;;;0.10;99.90;;;;;;20500417;29;20035;-40
2024/03/26 01:40:12;;;;;;;1.90;1.02;;;0.00;99.90;;;;;;20499464;29;20040;-39
2024/03/26 01:50:16;;;;;;;2.10;1.40;;;-0.10;99.90;;;;;;20419880;29;20082;-39
2024/03/26 02:00:20;;;;;;;1.75;1.10;;;-0.10;99.90;;;;;;20514252;28;20099;-39
2024/03/26 02:10:27;;;;;;;2.90;1.20;;;0.00;99.90;;;;;;20492127;29;20031;-39
2024/03/26 02:20:28;;;;;;;2.78;1.00;;;0.10;99.90;;;;;;20442669;29;20043;-39
2024/03/26 02:30:30;;;;;;;1.48;0.88;;;0.30;99.90;;;;;;20494466;29;20061;-40
2024/03/26 02:40:32;;;;;;;1.45;1.00;;;0.50;99.90;;;;;;20482997;29;20031;-39
2024/03/26 02:50:34;;;;;;;0.90;0.60;;;0.20;99.90;;;;;;20481759;29;20035;-39
2024/03/26 03:00:36;;;;;;;1.88;0.60;;;-0.20;99.80;;;;;;20436142;29;20031;-39
2024/03/26 03:10:37;;;;;;;1.65;0.45;;;-0.20;99.40;;;;;;20476090;29;20032;-39
2024/03/26 03:20:39;;;;;;;0.50;0.30;;;-0.30;98.60;;;;;;20440498;29;20435;-40
2024/03/26 03:30:41;;;;;;;2.10;0.50;;;-0.30;97.50;;;;;;20509183;29;20031;-40
2024/03/26 03:40:43;;;;;;;1.13;0.50;;;-0.20;97.60;;;;;;20429031;29;20511;-40
2024/03/26 03:50:45;;;;;;;0.90;0.40;;;-0.20;97.30;;;;;;20421842;29;20035;-41
2024/03/26 04:00:47;;;;;;;0.65;0.50;;;-0.10;97.30;;;;;;20436660;29;20067;-40
2024/03/26 04:10:49;;;;;;;0.93;0.32;;;0.30;97.00;;;;;;20478145;29;20039;-40
2024/03/26 04:20:51;;;;;;;0.88;0.70;;;0.70;96.60;;;;;;20486151;28;20036;-41
2024/03/26 04:30:53;;;;;;;1.67;0.38;;;0.90;96.70;;;;;;20452676;29;20028;-41
2024/03/26 04:40:55;;;;;;;0.80;0.50;;;1.20;97.40;;;;;;20445954;29;20040;-40
2024/03/26 04:50:57;;;;;;;1.40;0.60;;;1.50;96.70;;;;;;20436193;29;20038;-40
2024/03/26 05:00:59;;;;;;;2.10;0.70;;;1.90;95.90;;;;;;20502257;29;20035;-40
2024/03/26 05:11:00;;;;;;;1.35;0.70;;;2.20;95.90;;;;;;20476749;29;20068;-41
2024/03/26 05:21:02;;;;;;;0.90;0.65;;;2.50;96.40;;;;;;20433857;28;20039;-40
2024/03/26 05:31:15;;;;;;;2.28;0.68;;;2.70;96.50;;;;;;20498841;28;20031;-40
2024/03/26 05:41:17;;;;;;;1.20;0.70;;;2.80;96.60;;;;;;20481984;29;20486;-41
2024/03/26 05:51:19;;;;;;;1.38;0.60;;;3.00;95.80;;;;;;20420119;29;20051;-40
2024/03/26 06:01:22;;;;;;;1.90;0.63;;;3.20;94.90;;;;;;20499293;29;20152;-41
2024/03/26 06:11:24;;;;;;;1.38;0.40;;;3.50;95.40;;;;;;20481559;29;20035;-42
2024/03/26 06:21:26;;;;;;;1.23;0.40;;;3.80;93.60;;;;;;20423204;29;20044;-40
2024/03/26 06:31:31;;;;;;;0.75;0.45;;;4.40;91.00;;;;;;20432691;29;20039;-41
2024/03/26 06:41:32;;;;;;;2.45;0.40;;;4.80;91.20;;;;;;20479984;28;20035;-44
2024/03/26 06:51:34;;;;;;;1.10;0.43;;;5.00;90.50;;;;;;20467812;29;20454;-45
2024/03/26 07:01:36;;;;;;;1.33;0.50;;;5.50;86.10;;;;;;20492596;29;20034;-42
2024/03/26 07:11:38;;;;;;;2.35;0.40;;;6.20;86.30;;;;;;20491827;29;20035;-44
2024/03/26 07:21:40;;;;;;;1.20;0.40;;;6.70;80.20;;;;;;20467752;28;20106;-41
2024/03/26 07:31:42;;;;;;;0.80;0.40;;;6.70;84.20;;;;;;20429938;29;20046;-41
2024/03/26 07:41:44;;;;;;;1.10;0.40;;;6.90;81.80;;;;;;20427793;29;20554;-42
2024/03/26 07:51:48;;;;;;;0.73;0.50;;;6.70;85.10;;;;;;20426843;29;20043;-45
2024/03/26 08:01:50;;;;;;;1.35;0.70;;;6.80;81.20;;;;;;20258902;29;20111;-42
2024/03/26 08:11:52;;;;;;;3.60;1.77;;;7.50;88.00;;;;;;20244001;29;20056;-43
2024/03/26 08:21:54;;;;;;;2.70;1.17;;;7.80;85.20;;;;;;20259034;29;20104;-41
2024/03/26 08:31:56;;;;;;;1.15;0.50;;;7.90;86.90;;;;;;20390308;29;20060;-41
2024/03/26 08:41:58;;;;;;;1.25;0.55;;;7.80;81.60;;;;;;20423610;29;20086;-43
2024/03/26 08:52:00;;;;;;;1.20;0.65;;;7.80;83.10;;;;;;20416717;29;20036;-41
2024/03/26 09:02:02;;;;;;;1.27;0.70;;;7.80;87.90;;;;;;20419392;29;20452;-42
2024/03/26 09:12:04;;;;;;;1.10;0.68;;;7.80;87.80;;;;;;20419171;29;20525;-41
2024/03/26 09:22:07;;;;;;;1.92;0.98;;;6.70;91.70;;;;;;20434556;29;20090;-42
2024/03/26 09:32:09;;;;;;;0.80;0.50;;;5.30;95.80;;;;;;20482656;29;20035;-42
2024/03/26 09:42:11;;;;;;;1.48;0.70;;;5.10;97.20;;;;;;20493611;29;20039;-40
2024/03/26 09:52:13;;;;;;;3.17;0.65;;;5.20;95.90;;;;;;20442876;29;20035;-40
2024/03/26 10:02:15;;;;;;;1.08;0.60;;;5.50;95.60;;;;;;20498991;29;20094;-41
2024/03/26 10:12:17;;;;;;;2.60;0.60;;;5.70;95.60;;;;;;20498494;28;20398;-40
2024/03/26 10:22:19;;;;;;;1.77;0.85;;;5.80;94.70;;;;;;20512731;29;20103;-41
2024/03/26 10:32:24;;;;;;;2.03;0.70;;;5.30;96.20;;;;;;20448695;29;20039;-41
2024/03/26 10:42:27;;;;;;;1.10;0.55;;;4.80;96.20;;;;;;20483588;29;20440;-41
2024/03/26 10:52:30;;;;;;;3.42;0.73;;;4.40;96.30;;;;;;20435663;29;20035;-40
2024/03/26 11:02:33;;;;;;;1.77;0.63;;;4.50;96.90;;;;;;20443834;29;20028;-40
2024/03/26 11:12:36;;;;;;;3.78;0.90;;;4.30;98.20;;;;;;20460028;29;20047;-40
2024/03/26 11:22:42;;;;;;;1.42;0.82;;;3.80;99.90;;;;;;20430743;29;20048;-39
2024/03/26 11:32:44;;;;;;;2.72;1.00;;;3.10;99.90;;;;;;20409737;29;20103;-40
2024/03/26 11:42:48;;;;;;;1.65;0.95;;;2.80;99.90;;;;;;20447269;29;20023;-40
2024/03/26 11:52:50;;;;;;;2.40;1.10;;;2.70;99.90;;;;;;20485244;29;20094;-40
2024/03/26 12:02:54;;;;;;;1.92;1.13;;;2.40;99.90;;;;;;20486994;29;20066;-40
2024/03/26 12:12:59;;;;;;;2.83;1.10;;;2.40;99.90;;;;;;20492347;29;20117;-40
2024/03/26 12:23:05;;;;;;;1.52;0.90;;;2.50;99.90;;;;;;20504491;29;20043;-40
2024/03/26 12:33:07;;;;;;;5.90;1.10;;;3.00;99.90;;;;;;20504234;29;20051;-40
2024/03/26 12:43:12;;;;;;;1.98;0.93;;;3.10;99.90;;;;;;20454905;28;20035;-40
2024/03/26 12:53:16;;;;;;;1.42;0.77;;;3.10;99.90;;;;;;20454201;29;20038;-43
2024/03/26 13:03:18;;;;;;;3.60;1.27;;;3.00;99.90;;;;;;20501988;29;20109;-42
2024/03/26 13:13:20;;;;;;;1.42;0.98;;;3.40;99.90;;;;;;20446076;29;20032;-43
2024/03/26 13:23:22;;;;;;;3.25;1.30;;;3.70;99.90;;;;;;20457514;29;20110;-42
2024/03/26 13:33:29;;;;;;;2.45;1.17;;;3.50;99.90;;;;;;20434366;29;20589;-40
2024/03/26 13:43:31;;;;;;;3.78;1.75;;;3.50;99.90;;;;;;20430540;29;20491;-42
2024/03/26 13:53:32;;;;;;;5.90;1.45;;;3.40;99.90;;;;;;20447324;29;20058;-41
2024/03/26 14:03:34;;;;;;;3.25;1.80;;;3.30;99.90;;;;;;20499913;29;20416;-40
2024/03/26 14:13:39;;;;;;;4.60;1.70;;;3.10;99.90;;;;;;20509265;29;20035;-42
2024/03/26 14:23:40;;;;;;;3.28;1.98;;;3.00;99.90;;;;;;20509451;29;20133;-41
2024/03/26 14:33:42;;;;;;;3.25;1.90;;;3.10;99.90;;;;;;20511021;29;20458;-40
2024/03/26 14:43:44;;;;;;;4.60;1.60;;;3.30;99.90;;;;;;20486290;29;20045;-42
2024/03/26 14:53:55;;;;;;;2.05;1.38;;;3.20;99.90;;;;;;20496394;29;20403;-40
2024/03/26 15:03:56;;;;;;;3.15;1.45;;;3.20;99.90;;;;;;20442869;29;20042;-42
2024/03/26 15:13:58;;;;;;;2.65;1.30;;;3.30;99.90;;;;;;20445283;29;20107;-40
2024/03/26 15:24:00;;;;;;;2.30;1.42;;;3.20;99.90;;;;;;20464345;29;20043;-40
2024/03/26 15:34:02;;;;;;;2.50;1.40;;;3.10;99.90;;;;;;20507345;29;20039;-41
2024/03/26 15:44:04;;;;;;;1.27;0.93;;;3.10;99.90;;;;;;20438722;29;20105;-41
2024/03/26 15:54:05;;;;;;;1.38;1.00;;;3.10;99.90;;;;;;20487325;29;20086;-41
2024/03/26 16:04:09;;;;;;;3.22;1.40;;;3.00;99.90;;;;;;20483747;29;20079;-43
2024/03/26 16:14:11;;;;;;;2.85;1.88;;;2.80;99.90;;;;;;20503592;28;20039;-46
2024/03/26 16:24:13;;;;;;;2.85;1.90;;;2.50;99.90;;;;;;20504369;29;20098;-45
2024/03/26 16:34:15;;;;;;;2.10;1.42;;;2.40;99.90;;;;;;20473095;29;20036;-41
2024/03/26 16:44:38;;;;;;;2.13;1.40;;;2.50;99.90;;;;;;20331100;29;20064;-42
2024/03/26 16:54:43;;;;;;;2.67;2.00;;;2.80;99.90;;;;;;20459167;29;20051;-46
2024/03/26 17:04:46;;;;;;;2.90;2.33;;;2.70;99.90;;;;;;20234081;29;20036;-42
2024/03/26 17:14:48;;;;;;;2.05;1.05;;;2.50;99.90;;;;;;20255542;29;20532;-43
2024/03/26 17:24:51;;;;;;;0.60;0.40;;;2.80;99.90;;;;;;20254683;29;20100;-42
2024/03/26 17:34:56;;;;;;;4.72;1.20;;;3.00;99.90;;;;;;20254101;29;20076;-41
2024/03/26 17:44:59;;;;;;;1.50;0.90;;;2.90;99.90;;;;;;20212153;29;20061;-43
2024/03/26 17:55:01;;;;;;;0.90;0.70;;;2.70;99.90;;;;;;20433326;29;20055;-43
2024/03/26 18:05:04;;;;;;;1.52;0.93;;;2.70;99.90;;;;;;20498281;29;20054;-41
2024/03/26 18:15:09;;;;;;;0.52;0.45;;;2.80;99.90;;;;;;20481420;29;20091;-40
2024/03/26 18:25:12;;;;;;;0.98;0.70;;;3.00;99.90;;;;;;20497687;29;20110;-40
2024/03/26 18:35:17;;;;;;;0.80;0.50;;;3.00;99.90;;;;;;20468367;29;20035;-41
2024/03/26 18:45:19;;;;;;;0.98;0.50;;;2.90;99.90;;;;;;20512438;29;20049;-41
2024/03/26 18:55:21;;;;;;;0.50;0.30;;;2.90;99.90;;;;;;20481922;29;20058;-40
2024/03/26 19:05:22;;;;;;;0.47;0.30;;;2.90;99.90;;;;;;20489250;29;20102;-43
2024/03/26 19:15:24;;;;;;;1.10;0.70;;;2.90;99.90;;;;;;20510108;29;20089;-44
2024/03/26 19:25:26;;;;;;;1.23;0.80;;;3.00;99.90;;;;;;20507976;29;20073;-40
2024/03/26 19:35:28;;;;;;;2.25;0.70;;;2.80;99.90;;;;;;20491308;29;20090;-43
2024/03/26 19:45:30;;;;;;;1.40;0.50;;;2.80;99.90;;;;;;20475999;29;20036;-41
2024/03/26 19:55:34;;;;;;;0.98;0.50;;;2.70;99.90;;;;;;20444370;29;20036;-41
2024/03/26 20:05:36;;;;;;;1.02;0.50;;;2.80;99.90;;;;;;20434135;29;20046;-44
2024/03/26 20:15:44;;;;;;;0.30;0.20;;;2.80;99.90;;;;;;20461812;29;20035;-40
2024/03/26 20:25:46;;;;;;;0.10;0.08;;;2.80;99.90;;;;;;20459875;29;20098;-44
2024/03/26 20:35:48;;;;;;;0.40;0.25;;;2.90;99.90;;;;;;20504002;29;20541;-41
2024/03/26 20:45:53;;;;;;;0.50;0.30;;;2.90;99.90;;;;;;20451776;29;20036;-40
2024/03/26 20:55:58;;;;;;;0.15;0.03;;;2.90;99.90;;;;;;20458903;29;20035;-40
2024/03/26 21:06:05;;;;;;;0.17;0.10;;;3.00;99.90;;;;;;20500943;28;20094;-42
2024/03/26 21:16:10;;;;;;;0.28;0.20;;;3.00;99.90;;;;;;20484956;29;20043;-40
2024/03/26 21:26:13;;;;;;;0.20;0.20;;;3.00;99.90;;;;;;20500652;29;20047;-41
2024/03/26 21:36:15;;;;;;;0.30;0.10;;;3.10;99.90;;;;;;20469050;29;20466;-41
2024/03/26 21:46:17;;;;;;;0.30;0.20;;;3.20;99.90;;;;;;20445283;29;20406;-40
2024/03/26 21:56:19;;;;;;;0.32;0.20;;;3.20;99.90;;;;;;20475600;29;20509;-42
2024/03/26 22:06:20;;;;;;;0.32;0.20;;;3.20;99.90;;;;;;20477441;29;20035;-43
2024/03/26 22:16:22;;;;;;;0.32;0.20;;;3.30;99.90;;;;;;20512485;28;20099;-41
2024/03/26 22:26:24;;;;;;;0.88;0.40;;;3.40;99.90;;;;;;20513585;29;20043;-40
2024/03/26 22:36:26;;;;;;;0.50;0.30;;;3.40;99.90;;;;;;20496125;29;20097;-40
2024/03/26 22:46:27;;;;;;;0.30;0.30;;;3.30;99.90;;;;;;20472625;29;20043;-40
2024/03/26 22:56:29;;;;;;;0.45;0.20;;;3.40;99.90;;;;;;20456565;29;20035;-40
2024/03/26 23:06:31;;;;;;;0.30;0.20;;;3.50;99.90;;;;;;20511019;29;20327;-43
2024/03/26 23:16:33;;;;;;;0.30;0.10;;;3.60;99.90;;;;;;20510149;29;20036;-41
2024/03/26 23:26:36;;;;;;;0.82;0.40;;;3.70;99.90;;;;;;20508334;28;20118;-40
2024/03/26 23:36:38;;;;;;;0.70;0.50;;;3.60;99.90;;;;;;20459835;29;20047;-40
2024/03/26 23:46:40;;;;;;;0.93;0.40;;;3.60;99.90;;;;;;20499376;29;20372;-40
2024/03/26 23:56:42;;;;;;;0.88;0.50;;;3.50;99.90;;;;;;20486395;29;20031;-40
